METAR Data
IDs: Format: Raw Decoded Include TAF

Data at: 0236 UTC 24 Jun 2021

KRWL 240153Z AUTO 21010KT 10SM OVC110 24/M02 A3013 RMK AO2 SLP092 T02441022